Weather observations for the past three days for
University Airport
Imperial (Metric)
Date Time (pdt) Wind (mph) Vis. (mi.) Weather Sky Cond. Temperature (ºF) Relative Humidity Wind Chill (°F) Heat Index (°F) Pressure Precipitation (in)
Air Dwpt 6 hour altimeter (in) sea level (mb) 1 hr 3 hr 6 hr
Max. Min.
06 13:20 Calm 10.00 NULL NULL 71.6 53.6 53% 30.11 0.0
06 13:00 N 7 10.00 NULL NULL 71.6 51.8 50% 30.12 0.0
06 12:40 NE 6 10.00 NULL NULL 69.8 53.6 57% 30.12 0.0
06 12:20 Calm 10.00 NULL NULL 68 55.4 64% 30.13 0.0
06 12:00 Calm 10.00 NULL NULL 68 57.2 69% 30.14 0.0
06 11:40 Calm 10.00 NULL NULL 68 55.4 64% 30.14 0.0
06 11:20 Calm 10.00 NULL NULL 66.2 57.2 73% 30.14 0.0
06 11:00 Calm 10.00 NULL NULL 66.2 59 78% 30.14 0.0
06 10:35 Calm 10.00 NULL NULL 64.4 59 83% 30.14 0.0
06 10:20 Calm 10.00 NULL NULL 64.4 59 83% 30.14 0.0
06 10:00 Calm 10.00 NULL NULL 62.6 59 88% 30.14 0.0
06 09:40 Calm 10.00 NULL NULL 62.6 59 88% 30.14 0.0
06 09:20 Calm 10.00 NULL NULL 60.8 57.2 88% 30.14 0.0
06 09:00 Calm 10.00 NULL NULL 60.8 57.2 88% 30.14 0.0
06 08:40 Calm 10.00 NULL NULL 59 57.2 94% 30.14 0.0
06 08:20 Calm 10.00 NULL NULL 59 57.2 94% 30.14 0.0
06 08:00 Calm 10.00 NULL NULL 59 57.2 94% 30.13 0.0
06 07:40 Calm 10.00 NULL NULL 57.2 57.2 100% 30.13 0.0
06 07:20 Calm 10.00 NULL NULL 57.2 57.2 100% 30.13 0.0
06 07:00 Calm 10.00 NULL NULL 57.2 57.2 100% 30.12 0.0
06 06:40 Calm 10.00 NULL NULL 57.2 57.2 100% 30.11 0.0
06 06:20 Calm 10.00 NULL NULL 57.2 57.2 100% 30.11 0.0
06 06:00 Calm 10.00 NULL NULL 57.2 57.2 100% 30.11 0.0
06 05:40 Calm 10.00 NULL NULL 57.2 57.2 100% 30.1 0.0
06 05:20 Calm 10.00 NULL NULL 57.2 57.2 100% 30.1 0.0
06 05:00 Calm 10.00 NULL NULL 57.2 57.2 100% 30.1 0.0
06 04:40 Calm 10.00 NULL NULL 57.2 57.2 100% 30.09 0.0
06 04:20 Calm 10.00 NULL NULL 57.2 57.2 100% 30.09 0.0
06 04:00 Calm 10.00 NULL NULL 57.2 57.2 100% 30.08 0.0
06 03:40 Calm 10.00 NULL NULL 57.2 57.2 100% 30.08 0.0
06 03:20 Calm 10.00 NULL NULL 57.2 57.2 100% 30.07 0.0
06 02:55 Calm 10.00 NULL NULL 57.2 55.4 94% 30.07 0.0
06 02:40 Calm 10.00 NULL NULL 57.2 57.2 100% 30.07 0.0
06 02:20 Calm 10.00 NULL NULL 57.2 55.4 94% 30.08 0.0
06 02:00 Calm 10.00 NULL NULL 57.2 57.2 100% 30.07 0.0
06 01:40 Calm 10.00 NULL NULL 59 57.2 94% 30.07 0.0
06 01:20 Calm 10.00 NULL NULL 59 57.2 94% 30.07 0.0
06 01:00 Calm 10.00 NULL NULL 59 55.4 88% 30.07 0.0
06 00:40 Calm 10.00 NULL NULL 59 55.4 88% 30.06 0.0
06 00:20 Calm 10.00 NULL NULL 59 55.4 88% 30.06 0.0
06 00:00 Calm 10.00 NULL NULL 59 55.4 88% 30.05 0.0
05 23:40 Calm 10.00 NULL NULL 59 55.4 88% 30.05 0.0
05 23:15 Calm 10.00 NULL NULL 59 55.4 88% 30.04 0.0
05 23:00 Calm 10.00 NULL NULL 59 55.4 88% 30.04 0.0
05 22:40 Calm 10.00 NULL NULL 59 55.4 88% 30.04 0.0
05 22:20 Calm 10.00 NULL NULL 59 55.4 88% 30.04 0.0
05 22:00 S 5 10.00 NULL NULL 59 55.4 88% 30.02 0.0
05 21:40 S 6 10.00 NULL NULL 59 55.4 88% 30.01 0.0
05 21:20 S 6 10.00 NULL NULL 60.8 55.4 83% 30.01 0.0
05 21:00 Calm 10.00 NULL NULL 60.8 55.4 83% 30.01 0.0
05 20:40 S 8 10.00 NULL NULL 60.8 55.4 83% 30 0.0
05 20:20 S 8 10.00 NULL NULL 62.6 55.4 77% 29.99 0.0
05 20:00 S 7 10.00 NULL NULL 62.6 55.4 77% 29.99 0.0
05 19:40 S 10 10.00 NULL NULL 62.6 55.4 77% 29.98 0.0
05 19:20 S 9 10.00 NULL NULL 62.6 55.4 77% 29.97 0.0
05 18:55 S 8 10.00 NULL NULL 64.4 57.2 78% 29.97 0.0
05 18:40 S 10 10.00 NULL NULL 64.4 57.2 78% 29.97 0.0
05 18:20 S 9 10.00 NULL NULL 64.4 55.4 73% 29.97 0.0
05 18:00 S 7 10.00 NULL NULL 66.2 57.2 73% 29.97 0.0
05 17:40 S 9 10.00 NULL NULL 64.4 55.4 73% 29.97 0.0
05 17:20 S 9 10.00 NULL NULL 66.2 57.2 73% 29.96 0.0
05 17:00 S 8 10.00 NULL NULL 66.2 55.4 68% 29.96 0.0
05 16:40 Calm 10.00 NULL NULL 66.2 55.4 68% 29.96 0.0
05 16:20 SE 5 10.00 NULL NULL 66.2 53.6 64% 29.96 0.0
05 16:00 Calm 10.00 NULL NULL 66.2 53.6 64% 29.97 0.0
05 15:40 S 5 10.00 NULL NULL 66.2 53.6 64% 29.97 0.0
05 15:20 Calm 10.00 NULL NULL 64.4 53.6 68% 29.98 0.0
05 15:00 NE 5 10.00 NULL NULL 66.2 53.6 64% 29.98 0.0
05 14:35 N 6 10.00 NULL NULL 64.4 55.4 73% 29.98 0.0
05 14:20 Calm 10.00 NULL NULL 64.4 55.4 73% 29.99 0.0
05 13:55 NE 3 10.00 NULL NULL 62.6 55.4 77% 30 0.0
05 13:40 N 6 10.00 NULL NULL 62.6 55.4 77% 30 0.0
05 13:20 Calm 10.00 NULL NULL 62.6 55.4 77% 30 0.0
05 13:00 NW 5 10.00 NULL NULL 60.8 55.4 83% 30 0.0
05 12:40 NW 3 10.00 NULL NULL 60.8 57.2 88% 30 0.0
05 12:20 NE 6 10.00 NULL NULL 60.8 57.2 88% 30 0.0
05 12:00 Calm 10.00 NULL NULL 59 57.2 94% 30 0.0
05 11:40 N 5 10.00 NULL NULL 59 57.2 94% 30 0.0
05 11:20 Calm 10.00 NULL NULL 57.2 57.2 100% 29.99 0.0
05 11:00 Calm 10.00 NULL NULL 57.2 57.2 100% 29.99 0.0
05 10:40 Calm 10.00 NULL NULL 57.2 57.2 100% 29.99 0.0
05 10:15 Calm 10.00 NULL NULL 57.2 57.2 100% 29.99 0.0
05 10:00 Calm 10.00 NULL NULL 57.2 57.2 100% 29.99 0.0
05 09:40 Calm 10.00 NULL NULL 57.2 57.2 100% 29.98 0.0
05 09:20 Calm 10.00 NULL NULL 57.2 57.2 100% 29.98 0.0
05 09:00 Calm 10.00 NULL NULL 55.4 55.4 100% 29.98 0.0
05 08:40 Calm 10.00 NULL NULL 55.4 55.4 100% 29.98 0.0
05 08:20 Calm 10.00 NULL NULL 55.4 55.4 100% 29.97 0.0
05 08:00 Calm 10.00 NULL NULL 53.6 53.6 100% 29.96 0.0
05 07:40 Calm 10.00 NULL NULL 53.6 53.6 100% 29.96 0.0
05 07:20 Calm 10.00 NULL NULL 53.6 53.6 100% 29.95 0.0
05 07:00 Calm 10.00 NULL NULL 53.6 53.6 100% 29.94 0.0
05 06:35 Calm 10.00 NULL NULL 53.6 53.6 100% 29.94 0.0
05 06:20 Calm 10.00 NULL NULL 53.6 53.6 100% 29.94 0.0
05 05:55 Calm 10.00 NULL NULL 53.6 53.6 100% 29.94 0.0
05 05:40 Calm 10.00 NULL NULL 53.6 53.6 100% 29.94 0.0
05 05:15 Calm 10.00 NULL NULL 53.6 53.6 100% 29.94 0.0
05 05:00 Calm 10.00 NULL NULL 53.6 53.6 100% 29.93 0.0
05 04:40 Calm 10.00 NULL NULL 53.6 53.6 100% 29.94 0.0
05 04:20 Calm 10.00 NULL NULL 53.6 53.6 100% 29.94 0.0
05 04:00 S 6 10.00 NULL NULL 53.6 53.6 100% 29.94 0.0
05 03:40 S 3 10.00 NULL NULL 53.6 53.6 100% 29.94 0.0
05 03:20 Calm 10.00 NULL NULL 53.6 53.6 100% 29.94 0.0
05 03:00 S 6 10.00 NULL NULL 53.6 53.6 100% 29.95 0.0 0.02
05 02:40 Calm 10.00 NULL NULL 53.6 53.6 100% 29.95 0.0 0.01
05 02:15 Calm 10.00 NULL NULL 53.6 53.6 100% 29.96 0.0 0.01
05 01:55 S 6 10.00 NULL NULL 53.6 53.6 100% 29.95 0.0 0.01
05 01:40 Calm 10.00 NULL NULL 53.6 53.6 100% 29.96 0.0 0.01
05 01:15 Calm 10.00 NULL NULL 53.6 53.6 100% 29.97 0.0
05 00:45 Calm 8.00 NULL NULL 53.6 53.6 100% 29.98 0.0 0.04
05 00:35 Calm 8.00 NULL NULL 53.6 53.6 100% 29.97 0.0 0.03
04 15:55 Calm 8.00 NULL NULL 62.6 50 64% 29.97 0.0
04 15:35 Calm 10.00 NULL NULL 62.6 50 64% 29.96 0.0
04 15:20 Calm 10.00 NULL NULL 62.6 50 64% 29.96 0.0
04 05:10 Calm 10.00 NULL NULL 50 50 100% 29.93 0.0
04 05:00 S 5 10.00 NULL NULL 51.8 50 94% 29.93 0.0
04 04:05 Calm 10.00 NULL NULL 51.8 50 94% 29.93 0.0
04 04:00 Calm 10.00 NULL NULL 51.8 50 94% 29.93 0.0
04 03:40 Calm 10.00 NULL NULL 53.6 50 88% 29.93 0.0
04 03:10 Calm 10.00 NULL NULL 53.6 50 88% 29.94 0.0
04 03:00 Calm 10.00 NULL NULL 53.6 50 88% 29.93 0.0
04 02:35 Calm 10.00 NULL NULL 53.6 50 88% 29.93 0.0
04 02:15 Calm 10.00 NULL NULL 53.6 50 88% 29.94 0.0
04 01:55 Calm 10.00 NULL NULL 53.6 50 88% 29.93 0.0
04 01:40 Calm 10.00 NULL NULL 53.6 50 88% 29.93 0.0
04 01:20 SW 5 10.00 NULL NULL 53.6 50 88% 29.93 0.0
04 01:00 Calm 10.00 NULL NULL 53.6 50 88% 29.93 0.0
04 00:40 Calm 10.00 NULL NULL 53.6 50 88% 29.93 0.0
04 00:20 Calm 10.00 NULL NULL 53.6 50 88% 29.93 0.0
04 00:00 SW 7 10.00 NULL NULL 55.4 50 82% 29.94 0.0
03 23:35 Calm 10.00 NULL NULL 55.4 50 82% 29.94 0.0
03 23:15 Calm 10.00 NULL NULL 55.4 50 82% 29.93 0.0
03 22:55 Calm 10.00 NULL NULL 55.4 50 82% 29.93 0.0
03 22:35 Calm 10.00 NULL NULL 55.4 50 82% 29.93 0.0
03 22:15 S 3 10.00 NULL NULL 55.4 48.2 77% 29.93 0.0
03 21:55 Calm 10.00 NULL NULL 57.2 48.2 72% 29.92 0.0
03 21:35 Calm 10.00 NULL NULL 57.2 48.2 72% 29.91 0.0
03 21:15 Calm 10.00 NULL NULL 57.2 48.2 72% 29.91 0.0
03 20:55 S 3 10.00 NULL NULL 59 50 72% 29.9 0.0
03 20:40 S 7 10.00 NULL NULL 59 50 72% 29.89 0.0
03 20:20 S 7 10.00 NULL NULL 59 50 72% 29.89 0.0
03 19:55 SW 9 10.00 NULL NULL 62.6 48.2 60% 29.88 0.0
03 19:40 S 8 10.00 NULL NULL 62.6 48.2 60% 29.88 0.0
03 19:15 SW 8 10.00 NULL NULL 64.4 48.2 56% 29.87 0.0
03 19:00 SW 13 G 16 10.00 NULL NULL 64.4 48.2 56% 29.86 0.0
03 18:35 SW 14 G 18 10.00 NULL NULL 66.2 48.2 52% 29.86 0.0
03 18:20 S 12 10.00 NULL NULL 66.2 48.2 52% 29.86 0.0
03 17:55 S 14 G 21 10.00 NULL NULL 68 48.2 49% 29.86 0.0
03 17:40 S 14 G 17 10.00 NULL NULL 68 48.2 49% 29.86 0.0
03 17:15 S 13 G 18 10.00 NULL NULL 68 48.2 49% 29.86 0.0
03 17:00 SW 13 G 17 10.00 NULL NULL 68 48.2 49% 29.86 0.0
03 16:40 S 9 G 18 10.00 NULL NULL 68 48.2 49% 29.86 0.0
03 16:20 SW 12 G 18 10.00 NULL NULL 68 48.2 49% 29.86 0.0
03 16:00 S 15 G 20 10.00 NULL NULL 68 48.2 49% 29.85 0.0
03 15:40 S 15 G 23 10.00 NULL NULL 68 48.2 49% 29.85 0.0
03 15:15 S 13 G 18 10.00 NULL NULL 68 48.2 49% 29.86 0.0
03 14:55 S 16 G 22 10.00 NULL NULL 69.8 46.4 43% 29.86 0.0
03 14:40 SW 13 10.00 NULL NULL 69.8 48.2 46% 29.87 0.0
03 14:15 S 12 10.00 NULL NULL 68 48.2 49% 29.87 0.0
03 14:00 S 14 10.00 NULL NULL 68 48.2 49% 29.87 0.0
03 13:35 S 17 G 22 10.00 NULL NULL 68 48.2 49% 29.87 0.0
Date Time (pdt) Wind (mph) Vis. (mi.) Weather Sky Cond. Air Dwpt Max. Min. Relative Humidity Wind Chill (°F) Heat Index (°F) altimeter (in) sea level (mb) 1 hr 3 hr 6 hr
6 hour
Temperature (ºF) Pressure Precipitation (in)